Time;durP1;ratioP1;P1;durP2;ratioP2;P2;SDS_P1;SDS_P2;PMS_P1;PMS_P2;Temp;Humidity;BMP_temperature;BMP_pressure;BME280_temperature;BME280_humidity;BME280_pressure;Samples;Min_cycle;Max_cycle;Signal;HPM_P1;HPM_P2
2022/03/27 00:02:26;;;;;;;0.75;0.50;;;;;;;4.40;38.39;97363.84;4977107;24;20067;-86
2022/03/27 00:07:40;;;;;;;1.20;0.50;;;;;;;4.14;36.67;97343.75;4815481;24;20055;-87
2022/03/27 00:10:06;;;;;;;;;;;;;;;4.76;37.76;97399.19;5066902;24;20051;-87
2022/03/27 00:12:32;;;;;;;0.80;0.40;;;;;;;4.47;37.31;97356.03;4999405;24;19916;-86
2022/03/27 00:15:01;;;;;;;2.20;0.40;;;;;;;4.79;37.06;97404.28;4781587;30;20061;-86
2022/03/27 00:17:33;;;;;;;0.90;0.40;;;;;;;4.92;36.33;97417.78;4781332;29;20034;-86
2022/03/27 00:20:00;;;;;;;3.00;0.60;;;;;;;4.48;35.25;97411.66;4753341;30;20043;-87
2022/03/27 02:24:08;;;;;;;1.03;0.60;;;;;;;2.70;44.75;97537.59;5778738;24;20132;31
2022/03/27 04:39:14;;;;;;;1.73;0.40;;;;;;;3.10;40.97;97724.28;4763642;30;20047;-81
2022/03/27 05:12:23;;;;;;;2.15;0.57;;;;;;;2.98;41.70;97784.13;5006255;24;20126;-79
2022/03/27 05:14:49;;;;;;;0.47;0.40;;;;;;;2.98;41.95;97796.94;4788799;30;20027;-83
2022/03/27 05:17:15;;;;;;;1.80;0.70;;;;;;;2.83;42.34;97785.03;4774706;30;20055;-83
2022/03/27 05:19:41;;;;;;;1.38;0.70;;;;;;;2.62;42.63;97791.06;4812304;29;20039;-85
2022/03/27 05:22:07;;;;;;;1.90;0.60;;;;;;;2.29;43.70;97797.97;4798593;29;20023;-83
2022/03/27 05:24:34;;;;;;;3.42;0.75;;;;;;;2.35;43.80;97814.16;4814163;29;20062;-86
2022/03/27 05:27:23;;;;;;;1.08;0.50;;;;;;;2.50;43.73;97799.63;4783730;30;20047;-86
2022/03/27 05:33:15;;;;;;;4.88;0.90;;;;;;;2.78;42.56;97814.91;5732154;24;20069;-82
2022/03/27 05:38:57;;;;;;;1.15;0.57;;;;;;;2.70;42.10;97788.47;5638316;24;20171;-79
2022/03/27 05:41:32;;;;;;;1.40;0.60;;;;;;;3.06;41.30;97842.13;5657580;24;20026;31
2022/03/27 05:47:05;;;;;;;0.75;0.45;;;;;;;2.84;40.62;97807.25;5396324;24;20071;-83
2022/03/27 05:49:31;;;;;;;0.82;0.60;;;;;;;2.87;40.27;97809.75;4800685;30;20111;-83
2022/03/27 05:54:45;;;;;;;0.80;0.50;;;;;;;2.96;39.38;97821.69;4839785;24;20075;-84
2022/03/27 05:57:12;;;;;;;2.63;0.50;;;;;;;3.04;39.09;97841.31;4780901;30;20047;-84
2022/03/27 05:59:49;;;;;;;2.08;0.60;;;;;;;3.31;39.08;97857.44;4778449;29;20043;-85
2022/03/27 06:02:33;;;;;;;1.60;0.75;;;;;;;3.23;38.15;97830.97;4801096;29;20031;-85
2022/03/27 06:04:59;;;;;;;1.02;0.60;;;;;;;3.19;37.81;97853.19;4792325;29;20031;-87
2022/03/27 06:07:25;;;;;;;4.53;0.70;;;;;;;3.10;38.23;97853.22;5085135;24;20069;-83
2022/03/27 06:12:26;;;;;;;3.25;1.10;;;;;;;2.95;40.00;97866.09;5670375;24;20052;-83
2022/03/27 06:17:29;;;;;;;1.48;0.70;;;;;;;3.31;40.12;97865.97;5001500;24;20253;-84
2022/03/27 06:19:58;;;;;;;0.70;0.50;;;;;;;3.41;39.37;97882.16;5053807;24;20040;-84
2022/03/27 06:22:26;;;;;;;1.60;0.73;;;;;;;3.55;39.28;97905.19;4779489;30;20087;-83
2022/03/27 06:24:52;;;;;;;1.05;0.68;;;;;;;3.20;38.77;97866.84;4917906;24;20074;-85
2022/03/27 06:36:37;;;;;;;3.22;0.93;;;;;;;2.91;42.46;97952.31;5787880;24;20046;31
2022/03/27 06:39:15;;;;;;;1.67;0.55;;;;;;;3.05;42.27;97896.78;4893444;24;20052;31
2022/03/27 06:41:46;;;;;;;3.05;0.70;;;;;;;3.00;41.29;97892.53;5106352;24;21144;-82
2022/03/27 06:51:11;;;;;;;2.60;0.85;;;;;;;3.00;38.20;97926.69;4779094;30;20122;-81
2022/03/27 06:53:37;;;;;;;2.30;0.82;;;;;;;2.16;39.37;97939.50;4746481;30;20047;-84
2022/03/27 06:56:06;;;;;;;7.63;1.00;;;;;;;2.33;40.02;97959.97;4753643;30;20050;-81
2022/03/27 06:58:33;;;;;;;1.25;0.60;;;;;;;1.86;41.32;97970.97;4763059;30;20044;-82
2022/03/27 07:03:46;;;;;;;0.75;0.60;;;;;;;2.18;41.82;97977.88;4762327;30;20079;-82
2022/03/27 07:06:14;;;;;;;1.70;1.02;;;;;;;1.12;43.76;97956.16;4745279;30;20048;-83
2022/03/27 07:08:41;;;;;;;4.93;0.80;;;;;;;1.38;43.56;97985.25;4755048;30;20495;-80
2022/03/27 07:11:07;;;;;;;6.70;2.03;;;;;;;1.37;42.88;97975.84;4743851;30;20034;-80
2022/03/27 10:10:39;;;;;;;3.60;1.60;;;;;;;4.54;36.64;98302.59;4916187;24;20052;-82
2022/03/27 10:13:06;;;;;;;3.40;1.90;;;;;;;4.50;37.04;98295.75;4765092;30;20114;-85
2022/03/27 10:15:31;;;;;;;4.07;1.20;;;;;;;4.55;36.55;98288.88;4723931;30;20036;-83
2022/03/27 10:18:03;;;;;;;1.35;0.60;;;;;;;4.51;36.86;98286.34;4731333;30;20413;-81
2022/03/27 10:20:36;;;;;;;2.95;1.10;;;;;;;3.92;35.97;98302.63;4743128;30;20056;-82
2022/03/27 10:23:09;;;;;;;2.15;0.90;;;;;;;3.45;36.69;98311.09;4738719;30;20051;-82
2022/03/27 10:25:45;;;;;;;3.38;1.05;;;;;;;3.16;37.67;98300.75;4755539;30;20047;-82
2022/03/27 10:28:11;;;;;;;1.88;1.08;;;;;;;2.47;39.91;98329.41;4754057;30;20047;-86
2022/03/27 10:30:38;;;;;;;3.60;0.98;;;;;;;1.71;41.57;98308.34;4740966;30;20058;-83
2022/03/27 10:33:07;;;;;;;2.85;1.10;;;;;;;1.90;41.32;98335.81;4748331;30;20098;-83
2022/03/27 10:35:52;;;;;;;3.20;1.05;;;;;;;1.86;40.78;98345.97;4744120;30;20043;-84
2022/03/27 10:38:25;;;;;;;2.60;1.00;;;;;;;2.08;40.64;98327.44;4751448;30;20050;-83
2022/03/27 10:41:13;;;;;;;2.78;1.50;;;;;;;2.60;40.37;98361.06;4780825;30;20056;-84
2022/03/27 10:43:53;;;;;;;2.63;1.13;;;;;;;2.44;39.60;98351.59;4753043;30;20123;-83
2022/03/27 10:46:29;;;;;;;1.65;1.00;;;;;;;2.50;40.06;98365.28;4757501;30;20047;-83
2022/03/27 10:49:14;;;;;;;2.03;1.08;;;;;;;2.51;38.90;98361.88;4742850;30;20051;-83
2022/03/27 10:51:41;;;;;;;1.90;0.65;;;;;;;3.03;37.82;98364.75;4972603;24;20064;-84
2022/03/27 10:54:18;;;;;;;2.78;0.95;;;;;;;2.90;37.21;98368.09;4756718;30;20106;-84
2022/03/27 10:56:48;;;;;;;3.10;0.60;;;;;;;3.13;37.35;98367.38;4785604;30;20054;-82
2022/03/27 10:59:19;;;;;;;2.10;0.82;;;;;;;2.27;38.76;98371.94;4772931;30;20077;-85
2022/03/27 11:01:48;;;;;;;1.20;0.77;;;;;;;1.94;39.04;98358.00;4757583;30;20047;-83
2022/03/27 11:04:15;;;;;;;4.28;0.80;;;;;;;1.98;38.21;98392.16;4776724;30;20043;-84
2022/03/27 11:06:51;;;;;;;1.67;1.00;;;;;;;1.56;39.40;98395.09;4772991;30;20047;-83
2022/03/27 11:09:34;;;;;;;0.70;0.60;;;;;;;1.43;39.98;98392.41;4779745;30;20051;-84
2022/03/27 11:12:01;;;;;;;4.55;1.10;;;;;;;0.75;39.68;98387.25;4757263;30;20078;-85
2022/03/27 11:14:47;;;;;;;3.08;0.90;;;;;;;1.30;39.34;98387.97;4757112;30;20016;-83
2022/03/27 11:17:13;;;;;;;2.53;0.90;;;;;;;1.22;38.30;98390.44;4761810;30;20051;-82
2022/03/27 11:19:43;;;;;;;3.08;0.95;;;;;;;1.09;38.83;98405.56;4756344;30;20039;-86
2022/03/27 11:22:38;;;;;;;1.52;0.80;;;;;;;2.05;37.87;98401.56;4769801;30;20051;-85
2022/03/27 11:25:30;;;;;;;2.28;0.70;;;;;;;2.36;36.32;98397.59;4789542;29;20059;-84
2022/03/27 11:28:11;;;;;;;2.92;0.90;;;;;;;2.67;36.26;98433.69;4773824;30;20083;-84
2022/03/27 11:30:40;;;;;;;2.63;0.85;;;;;;;2.13;36.61;98412.75;4770004;30;20054;-82
2022/03/27 11:33:14;;;;;;;1.20;0.68;;;;;;;2.60;37.04;98426.78;4759868;30;20047;-83
2022/03/27 11:36:00;;;;;;;1.17;0.60;;;;;;;2.02;36.79;98399.88;4772340;30;20072;-83
2022/03/27 11:38:27;;;;;;;1.10;0.50;;;;;;;2.13;36.08;98414.44;4788272;30;20527;-83
2022/03/27 11:40:55;;;;;;;1.98;0.52;;;;;;;2.50;36.13;98401.13;4760599;30;20315;-83
2022/03/27 11:43:27;;;;;;;2.28;0.80;;;;;;;2.42;34.85;98463.31;4765760;30;20539;-84
2022/03/27 11:45:55;;;;;;;4.30;1.45;;;;;;;2.33;35.10;98404.38;4764367;30;20085;-83
2022/03/27 11:48:20;;;;;;;1.95;1.00;;;;;;;2.14;35.49;98405.91;4757655;30;20039;-83
2022/03/27 11:50:46;;;;;;;2.95;0.93;;;;;;;2.14;35.59;98419.56;4759962;30;20130;-83
2022/03/27 11:53:12;;;;;;;1.60;1.00;;;;;;;2.36;35.53;98432.56;4769706;29;20054;-83
2022/03/27 11:55:39;;;;;;;1.38;0.98;;;;;;;2.44;35.12;98433.50;4788094;29;20027;-83
2022/03/27 11:58:33;;;;;;;1.33;0.70;;;;;;;2.56;34.07;98454.06;4759784;30;20102;-84
2022/03/27 12:01:03;;;;;;;4.05;2.22;;;;;;;2.64;33.38;98461.81;4826790;24;20058;-78
2022/03/27 12:03:29;;;;;;;28.05;12.50;;;;;;;2.36;33.75;98453.91;4779915;29;20410;-80
2022/03/27 12:05:56;;;;;;;17.67;7.57;;;;;;;2.16;34.06;98461.38;4762428;29;20054;-80
2022/03/27 12:08:39;;;;;;;9.65;4.03;;;;;;;2.01;34.76;98482.53;4767120;29;20063;-83
2022/03/27 12:11:06;;;;;;;7.78;2.50;;;;;;;2.07;34.16;98463.84;4802925;29;20043;-83
2022/03/27 12:13:39;;;;;;;4.53;2.00;;;;;;;2.32;34.34;98456.41;4807452;29;20072;-85
2022/03/27 12:16:06;;;;;;;2.42;0.80;;;;;;;2.24;33.46;98494.72;4781368;29;20047;-83
2022/03/27 12:18:33;;;;;;;5.40;1.30;;;;;;;2.57;32.96;98483.06;4777693;29;20035;-82
2022/03/27 12:21:01;;;;;;;5.00;1.25;;;;;;;2.73;33.24;98496.03;4799688;29;20039;-84
2022/03/27 12:23:32;;;;;;;5.25;1.35;;;;;;;3.66;31.17;98485.50;4787812;29;20076;-84
2022/03/27 12:26:03;;;;;;;3.38;1.13;;;;;;;4.71;30.26;98478.94;4794489;29;20043;-83
2022/03/27 12:31:27;;;;;;;3.00;1.10;;;;;;;4.16;30.58;98496.81;4795236;29;20076;-83
2022/03/27 12:33:55;;;;;;;3.10;1.00;;;;;;;3.79;29.96;98483.88;4796475;29;20125;-83
2022/03/27 12:36:21;;;;;;;5.13;1.00;;;;;;;4.11;28.98;98491.69;4786435;29;20063;-84
2022/03/27 12:38:47;;;;;;;2.90;1.10;;;;;;;3.98;28.65;98485.66;4788778;29;20101;-84
2022/03/27 12:41:14;;;;;;;3.88;0.73;;;;;;;4.00;28.20;98481.41;4792065;29;20043;-86
2022/03/27 12:43:59;;;;;;;6.82;0.95;;;;;;;2.97;28.91;98472.31;4788665;29;20493;-84
2022/03/27 12:46:25;;;;;;;1.75;0.73;;;;;;;2.72;29.56;98466.16;4800132;29;20051;-83
2022/03/27 12:49:20;;;;;;;5.13;0.63;;;;;;;2.64;30.01;98536.06;4794384;29;20050;-83
2022/03/27 12:51:55;;;;;;;4.43;0.90;;;;;;;3.00;29.52;98480.03;4785110;29;20167;-83
2022/03/27 12:54:24;;;;;;;3.22;0.90;;;;;;;3.73;27.64;98512.06;4788055;29;20102;-83
2022/03/27 12:56:57;;;;;;;4.30;0.80;;;;;;;3.92;27.72;98480.50;4800574;29;20054;-85
2022/03/27 12:59:23;;;;;;;3.55;0.90;;;;;;;4.20;26.89;98495.97;4807460;29;20070;-85
2022/03/27 13:01:50;;;;;;;4.05;0.85;;;;;;;3.85;26.91;98522.41;4769815;29;20539;-84
2022/03/27 13:04:16;;;;;;;5.75;0.85;;;;;;;3.79;27.11;98518.06;4791336;29;20570;-84
2022/03/27 13:06:45;;;;;;;2.90;0.63;;;;;;;3.72;27.15;98498.38;4774764;29;20031;-86
2022/03/27 13:09:21;;;;;;;6.95;0.63;;;;;;;3.86;27.21;98475.38;4783496;29;20092;-85
2022/03/27 13:11:46;;;;;;;3.90;1.27;;;;;;;3.34;26.69;98567.38;4794633;29;20200;-84
2022/03/27 13:14:15;;;;;;;3.72;1.10;;;;;;;3.15;27.37;98494.63;4787546;29;20031;-83
2022/03/27 21:10:27;;;;;;;1.42;0.90;;;;;;;-0.45;29.66;99127.50;5009423;24;20107;-86
2022/03/27 21:53:33;;;;;;;2.17;1.00;;;;;;;-1.09;29.85;99114.41;5344594;24;20095;-86
2022/03/27 21:59:11;;;;;;;1.25;0.68;;;;;;;-1.14;29.84;99107.44;4960324;24;20297;-87
2022/03/27 22:02:04;;;;;;;1.30;0.90;;;;;;;-0.68;29.74;99155.66;4843833;24;20034;-86
2022/03/27 22:04:46;;;;;;;2.33;1.10;;;;;;;-0.96;29.82;99143.69;4776813;30;20052;-85
2022/03/27 22:07:13;;;;;;;3.53;0.98;;;;;;;-1.07;29.76;99128.06;4734036;30;20040;-86
2022/03/27 22:12:58;;;;;;;2.88;0.90;;;;;;;-1.34;29.44;99117.81;5144147;24;20086;-86
2022/03/27 22:19:22;;;;;;;1.80;0.90;;;;;;;-1.41;30.08;99122.66;4856481;24;20119;-86
2022/03/27 22:27:25;;;;;;;1.95;0.80;;;;;;;-1.63;30.44;99109.16;4843456;24;20070;-85
2022/03/27 22:38:52;;;;;;;2.38;0.95;;;;;;;-1.83;30.27;99159.31;5606297;24;20107;-85
2022/03/27 22:41:43;;;;;;;3.30;0.90;;;;;;;-1.53;30.61;99156.13;4813165;29;20094;-86
2022/03/27 22:44:20;;;;;;;1.40;0.90;;;;;;;-1.59;30.46;99184.78;4846160;24;20042;-85
2022/03/27 22:47:08;;;;;;;2.00;0.98;;;;;;;-1.70;30.86;99155.53;4803080;29;20050;-85
2022/03/27 22:49:35;;;;;;;2.55;1.17;;;;;;;-1.78;30.40;99118.81;4800849;29;20094;-85
2022/03/27 22:52:30;;;;;;;5.28;2.50;;;;;;;-1.52;30.60;99108.66;4797728;29;20023;-83
2022/03/27 22:55:00;;;;;;;3.45;0.95;;;;;;;-1.57;30.42;99099.19;4797113;30;20072;-84
2022/03/27 22:57:28;;;;;;;3.65;1.20;;;;;;;-1.22;29.91;99172.50;4959532;24;20019;-83
2022/03/27 22:59:57;;;;;;;1.73;1.25;;;;;;;-1.70;29.63;99102.13;4783176;30;20057;-84
2022/03/27 23:02:26;;;;;;;2.28;1.20;;;;;;;-1.75;29.98;99141.78;4783609;30;20087;-85
2022/03/27 23:04:55;;;;;;;4.03;1.10;;;;;;;-2.31;30.59;99125.28;4774503;30;20027;-82
2022/03/27 23:07:24;;;;;;;1.58;0.93;;;;;;;-2.63;30.62;99094.44;4736185;30;20059;-82
2022/03/27 23:15:34;;;;;;;1.27;0.90;;;;;;;-2.94;32.78;99147.31;4924568;24;20066;-84
2022/03/27 23:18:03;;;;;;;2.58;0.90;;;;;;;-2.54;31.74;99185.34;4764894;30;20056;-85
2022/03/27 23:20:33;;;;;;;5.95;1.08;;;;;;;-2.88;32.43;99130.69;4764458;30;20099;-84
2022/03/27 23:23:05;;;;;;;2.15;0.80;;;;;;;-2.81;32.38;99142.81;4941124;24;20040;-86
2022/03/27 23:25:39;;;;;;;2.00;1.00;;;;;;;-2.83;32.36;99182.50;5014700;24;20456;-82
2022/03/27 23:28:11;;;;;;;1.40;1.00;;;;;;;-2.68;32.30;99189.88;4796219;30;20058;-83
2022/03/27 23:30:38;;;;;;;3.70;0.88;;;;;;;-2.89;32.82;99143.31;4780969;30;20043;-84
2022/03/27 23:33:11;;;;;;;4.18;0.80;;;;;;;-3.03;32.92;99117.34;4775381;30;20059;-82
2022/03/27 23:35:41;;;;;;;2.33;0.98;;;;;;;-3.06;32.63;99135.03;4785703;29;20054;-84
2022/03/27 23:38:09;;;;;;;7.63;1.08;;;;;;;-2.99;33.34;99148.81;4781636;29;20020;-83
2022/03/27 23:40:37;;;;;;;1.10;0.80;;;;;;;-2.77;33.08;99186.97;4775863;29;20058;-84
2022/03/27 23:43:05;;;;;;;3.40;0.88;;;;;;;-3.15;33.20;99170.16;4785226;30;20046;-82
2022/03/27 23:45:34;;;;;;;1.33;0.88;;;;;;;-3.26;32.87;99163.75;4754054;30;20055;-84
2022/03/27 23:48:00;;;;;;;1.67;0.90;;;;;;;-3.12;33.47;99158.44;4769329;29;20375;-84
2022/03/27 23:50:27;;;;;;;1.08;0.70;;;;;;;-3.46;33.76;99124.88;4759057;29;20046;-83
2022/03/27 23:52:54;;;;;;;1.30;0.73;;;;;;;-3.26;32.94;99118.94;4799163;29;20022;-83
2022/03/27 23:55:21;;;;;;;1.40;0.90;;;;;;;-3.34;33.55;99135.53;4766012;30;20056;-84
2022/03/27 23:57:53;;;;;;;1.58;0.80;;;;;;;-3.10;33.79;99197.44;4780315;29;20107;-84
